Time;durP1;ratioP1;P1;durP2;ratioP2;P2;SDS_P1;SDS_P2;PMS_P1;PMS_P2;Temp;Humidity;BMP_temperature;BMP_pressure;BME280_temperature;BME280_humidity;BME280_pressure;Samples;Min_cycle;Max_cycle;Signal;HPM_P1;HPM_P2
2023/07/09 00:01:37;;;;;;;9.30;6.03;;;24.70;61.80;;;;;;5073382;28;20044;-70
2023/07/09 00:04:03;;;;;;;10.50;5.70;;;24.70;61.60;;;;;;5073339;28;20047;-70
2023/07/09 00:06:29;;;;;;;8.57;5.70;;;24.70;62.00;;;;;;5073146;28;20128;-70
2023/07/09 00:08:55;;;;;;;6.72;5.65;;;24.60;62.10;;;;;;5073092;28;20059;-70
2023/07/09 00:11:21;;;;;;;10.48;6.30;;;24.60;62.10;;;;;;5072686;28;20040;-70
2023/07/09 00:13:46;;;;;;;8.13;6.05;;;24.60;61.90;;;;;;5073130;28;20036;-70
2023/07/09 00:16:19;;;;;;;8.13;6.07;;;24.50;62.10;;;;;;5073059;28;20043;-70
2023/07/09 00:18:48;;;;;;;11.75;5.90;;;24.50;62.20;;;;;;5072996;28;20119;-70
2023/07/09 00:21:15;;;;;;;10.95;5.85;;;24.50;62.10;;;;;;5073001;28;20097;-70
2023/07/09 00:23:41;;;;;;;11.95;5.82;;;24.40;62.40;;;;;;5073002;28;20056;-70
2023/07/09 00:26:14;;;;;;;7.95;5.93;;;24.40;62.30;;;;;;5072920;28;20080;-70
2023/07/09 00:28:41;;;;;;;10.77;6.05;;;24.40;62.30;;;;;;5072694;28;20087;-71
2023/07/09 00:31:15;;;;;;;7.50;5.70;;;24.30;62.40;;;;;;5072816;28;20048;-71
2023/07/09 00:33:42;;;;;;;7.65;5.47;;;24.30;62.40;;;;;;5073004;28;20068;-70
2023/07/09 00:36:32;;;;;;;11.18;5.78;;;24.30;62.40;;;;;;5072699;28;20040;-70
2023/07/09 00:39:04;;;;;;;8.85;6.00;;;24.30;62.40;;;;;;5072874;28;20121;-70
2023/07/09 00:41:37;;;;;;;11.65;5.85;;;24.10;63.20;;;;;;5072913;28;20124;-70
2023/07/09 00:44:31;;;;;;;8.30;5.57;;;24.10;63.20;;;;;;5073418;28;20044;-70
2023/07/09 00:47:02;;;;;;;9.18;5.38;;;24.10;62.90;;;;;;5072704;28;20055;-70
2023/07/09 00:49:34;;;;;;;10.75;6.00;;;24.00;64.00;;;;;;5072363;28;20044;-70
2023/07/09 00:52:03;;;;;;;10.00;6.10;;;24.00;64.60;;;;;;5072413;28;20052;-70
2023/07/09 00:54:37;;;;;;;8.73;5.60;;;23.90;64.00;;;;;;5072376;28;20045;-70
2023/07/09 00:57:11;;;;;;;10.45;6.10;;;23.90;64.20;;;;;;5072267;28;20408;-71
2023/07/09 00:59:37;;;;;;;6.80;5.50;;;23.80;63.90;;;;;;5072610;28;20052;-71
2023/07/09 01:02:04;;;;;;;8.85;6.25;;;23.80;64.40;;;;;;5072520;28;20162;-71
2023/07/09 01:04:30;;;;;;;10.85;6.05;;;23.80;64.30;;;;;;5072158;28;20037;-71
2023/07/09 01:06:57;;;;;;;9.23;5.90;;;23.80;64.20;;;;;;5071989;28;20469;-71
2023/07/09 01:09:25;;;;;;;9.43;5.38;;;23.70;64.40;;;;;;5072071;28;20037;-71
2023/07/09 01:11:50;;;;;;;7.97;6.03;;;23.70;64.60;;;;;;5072374;28;20041;-71
2023/07/09 01:14:21;;;;;;;12.73;5.90;;;23.60;64.40;;;;;;5072067;28;20123;-71
2023/07/09 01:16:59;;;;;;;6.22;5.38;;;23.60;64.40;;;;;;5072031;28;20041;-70
2023/07/09 01:19:28;;;;;;;11.38;5.88;;;23.60;64.70;;;;;;5072060;28;20049;-70
2023/07/09 01:21:58;;;;;;;13.55;6.22;;;23.50;65.00;;;;;;5071963;28;20083;-70
2023/07/09 01:24:48;;;;;;;8.90;5.68;;;23.50;64.80;;;;;;5054529;28;20190;-70
2023/07/09 01:27:14;;;;;;;6.85;5.70;;;23.50;65.00;;;;;;5072194;28;20075;-70
2023/07/09 01:29:41;;;;;;;9.20;6.10;;;23.40;65.40;;;;;;5071988;28;20481;-70
2023/07/09 01:32:07;;;;;;;12.55;6.03;;;23.40;65.30;;;;;;5072135;28;20074;-70
2023/07/09 01:34:33;;;;;;;9.75;6.20;;;23.40;65.50;;;;;;5071980;28;20068;-70
2023/07/09 01:36:59;;;;;;;11.98;5.45;;;23.40;65.60;;;;;;5071793;28;20040;-70
2023/07/09 01:39:30;;;;;;;9.52;5.50;;;23.30;65.30;;;;;;5071784;28;20055;-70
2023/07/09 01:41:56;;;;;;;9.65;5.90;;;23.30;65.40;;;;;;5072137;28;20052;-70
2023/07/09 01:44:23;;;;;;;7.93;6.10;;;23.30;65.30;;;;;;5071779;28;20040;-70
2023/07/09 01:46:49;;;;;;;9.20;6.15;;;23.40;65.90;;;;;;5055200;28;20051;-70
2023/07/09 01:49:14;;;;;;;12.57;5.80;;;23.30;65.30;;;;;;5071705;28;20053;-70
2023/07/09 01:51:41;;;;;;;9.98;6.43;;;23.30;65.40;;;;;;5054957;28;20049;-70
2023/07/09 01:54:06;;;;;;;8.68;5.90;;;23.20;65.50;;;;;;5071722;28;20036;-70
2023/07/09 01:56:32;;;;;;;10.60;6.07;;;23.20;65.80;;;;;;5055250;28;20183;-70
2023/07/09 01:59:01;;;;;;;8.05;5.78;;;23.20;66.60;;;;;;5071623;28;20048;-70
2023/07/09 02:01:28;;;;;;;14.20;5.65;;;23.10;65.90;;;;;;5071844;28;20051;-70
2023/07/09 02:03:54;;;;;;;9.98;5.75;;;23.10;65.80;;;;;;5071584;28;20047;-70
2023/07/09 02:06:19;;;;;;;7.93;5.30;;;23.10;66.00;;;;;;5055016;28;20044;-70
2023/07/09 02:08:45;;;;;;;8.93;6.28;;;23.10;66.10;;;;;;5071389;28;20047;-70
2023/07/09 02:11:11;;;;;;;8.88;6.00;;;23.10;66.10;;;;;;5071504;28;20033;-70
2023/07/09 02:13:37;;;;;;;9.80;5.90;;;23.10;66.00;;;;;;5071743;28;20029;-70
2023/07/09 02:16:02;;;;;;;9.50;6.25;;;23.00;66.00;;;;;;5071489;28;20516;-70
2023/07/09 02:18:28;;;;;;;7.32;5.35;;;23.00;66.00;;;;;;5071619;28;20040;-70
2023/07/09 02:20:54;;;;;;;9.13;6.05;;;23.00;66.20;;;;;;5054718;28;20039;-70
2023/07/09 02:23:20;;;;;;;9.43;6.20;;;22.90;67.00;;;;;;5071424;28;20028;-70
2023/07/09 02:25:45;;;;;;;12.00;6.40;;;22.90;66.50;;;;;;5071442;28;20032;-70
2023/07/09 02:28:11;;;;;;;6.95;5.75;;;22.90;66.50;;;;;;5071560;28;20169;-70
2023/07/09 02:30:36;;;;;;;8.27;6.10;;;22.90;66.80;;;;;;5071246;28;20040;-71
2023/07/09 02:33:02;;;;;;;8.15;5.85;;;22.80;67.30;;;;;;5071342;28;20033;-71
2023/07/09 02:35:28;;;;;;;9.57;5.97;;;22.80;66.90;;;;;;5073852;28;20063;-71
2023/07/09 02:37:53;;;;;;;11.73;6.00;;;22.80;67.20;;;;;;5075157;28;20047;-71
2023/07/09 02:40:19;;;;;;;9.98;5.75;;;22.70;67.60;;;;;;5075008;28;20090;-71
2023/07/09 02:42:44;;;;;;;11.30;6.40;;;22.60;68.00;;;;;;5074975;28;20044;-71
2023/07/09 02:45:10;;;;;;;9.80;6.53;;;22.60;68.20;;;;;;5058496;28;20052;-71
2023/07/09 02:47:36;;;;;;;11.50;6.45;;;22.50;68.00;;;;;;5074723;28;20037;-71
2023/07/09 02:50:02;;;;;;;8.98;6.13;;;22.50;67.90;;;;;;5058042;28;20090;-71
2023/07/09 02:52:28;;;;;;;9.63;6.07;;;22.50;67.80;;;;;;5074698;28;20048;-71
2023/07/09 02:54:54;;;;;;;8.88;6.50;;;22.50;67.80;;;;;;5074925;28;20043;-71
2023/07/09 02:57:19;;;;;;;11.45;7.45;;;22.50;67.90;;;;;;5074804;28;20071;-71
2023/07/09 02:59:45;;;;;;;8.77;6.22;;;22.50;68.00;;;;;;5057921;28;20413;-71
2023/07/09 03:02:11;;;;;;;11.80;6.65;;;22.50;68.10;;;;;;5074542;28;20072;-71
2023/07/09 03:04:36;;;;;;;8.05;7.15;;;22.50;68.20;;;;;;5074770;28;20045;-71
2023/07/09 03:07:02;;;;;;;11.50;7.28;;;22.40;68.30;;;;;;5074493;28;20036;-71
2023/07/09 03:09:28;;;;;;;7.90;6.07;;;22.40;68.30;;;;;;5074305;28;20501;-71
2023/07/09 03:11:54;;;;;;;11.27;7.20;;;22.40;68.60;;;;;;5074360;28;20045;-71
2023/07/09 03:14:19;;;;;;;10.52;6.63;;;22.30;68.50;;;;;;5074346;28;20105;-71
2023/07/09 03:16:45;;;;;;;9.27;6.82;;;22.30;68.70;;;;;;5074549;28;20029;-71
2023/07/09 03:19:11;;;;;;;12.98;6.25;;;22.30;68.90;;;;;;5074158;28;20431;-71
2023/07/09 03:21:36;;;;;;;10.98;6.80;;;22.30;68.90;;;;;;5074468;28;20052;-71
2023/07/09 03:24:02;;;;;;;9.70;6.30;;;22.30;68.90;;;;;;5074467;28;20515;-71
2023/07/09 03:26:28;;;;;;;8.40;6.75;;;22.20;68.90;;;;;;5057454;28;20101;-71
2023/07/09 03:28:54;;;;;;;9.60;6.40;;;22.20;69.00;;;;;;5074184;28;20040;-71
2023/07/09 03:31:21;;;;;;;11.05;6.40;;;22.20;69.10;;;;;;5074328;28;20037;-71
2023/07/09 03:33:51;;;;;;;11.45;6.18;;;22.20;69.20;;;;;;5073969;28;20043;-71
2023/07/09 03:36:18;;;;;;;11.38;6.80;;;22.20;69.30;;;;;;5073953;28;20040;-70
2023/07/09 03:38:44;;;;;;;10.10;7.00;;;22.10;69.40;;;;;;5073785;28;20036;-70
2023/07/09 03:41:09;;;;;;;9.25;6.75;;;22.10;69.50;;;;;;5073856;28;20098;-70
2023/07/09 03:43:35;;;;;;;10.50;6.90;;;22.10;69.70;;;;;;5073746;28;20028;-70
2023/07/09 03:46:01;;;;;;;9.60;6.43;;;22.10;70.20;;;;;;5072821;28;20058;-70
2023/07/09 03:48:27;;;;;;;12.88;6.70;;;22.00;70.50;;;;;;5057120;28;20028;-70
2023/07/09 03:50:52;;;;;;;11.88;7.43;;;22.00;70.70;;;;;;5073870;28;20033;-70
2023/07/09 03:53:18;;;;;;;12.30;7.38;;;21.90;71.00;;;;;;5073605;28;20036;-70
2023/07/09 03:55:47;;;;;;;10.27;7.00;;;21.90;70.80;;;;;;5073538;28;20032;-70
2023/07/09 03:58:12;;;;;;;13.27;7.10;;;22.00;71.80;;;;;;5073418;28;20036;-70
2023/07/09 04:00:38;;;;;;;9.27;6.90;;;21.90;70.90;;;;;;5073652;28;20056;-70
2023/07/09 04:03:04;;;;;;;10.95;6.70;;;21.90;71.70;;;;;;5073684;28;20048;-70
2023/07/09 04:05:29;;;;;;;8.63;6.47;;;21.90;71.10;;;;;;5073504;28;20078;-70
2023/07/09 04:07:55;;;;;;;7.25;6.18;;;21.90;71.10;;;;;;5073466;28;20401;-70
2023/07/09 04:10:20;;;;;;;13.75;6.60;;;22.00;71.40;;;;;;5073228;28;20040;-70
2023/07/09 04:12:46;;;;;;;15.32;7.43;;;22.00;71.70;;;;;;5073475;28;20125;-70
2023/07/09 04:15:12;;;;;;;10.63;7.13;;;22.00;72.30;;;;;;5073162;28;20434;-70
2023/07/09 04:17:39;;;;;;;9.52;6.68;;;22.00;71.60;;;;;;5056431;28;20497;-70
2023/07/09 04:20:05;;;;;;;14.63;6.78;;;22.00;71.70;;;;;;5073064;28;20044;-70
2023/07/09 04:22:31;;;;;;;12.15;7.38;;;22.10;71.90;;;;;;5073005;28;20122;-70
2023/07/09 04:24:57;;;;;;;14.95;7.13;;;22.10;71.90;;;;;;5073000;28;20040;-70
2023/07/09 04:27:27;;;;;;;11.52;7.40;;;22.10;71.90;;;;;;5072873;28;20040;-70
2023/07/09 04:29:53;;;;;;;9.15;6.78;;;22.10;72.50;;;;;;5072722;28;20071;-70
2023/07/09 04:32:20;;;;;;;9.55;6.72;;;22.20;71.80;;;;;;5072819;28;20044;-70
2023/07/09 04:34:45;;;;;;;10.00;6.80;;;22.20;72.10;;;;;;5073082;28;20044;-70
2023/07/09 04:37:12;;;;;;;12.63;7.18;;;22.20;72.40;;;;;;5072644;28;20047;-70
2023/07/09 04:39:38;;;;;;;10.77;6.85;;;22.20;72.50;;;;;;5072643;28;20519;-70
2023/07/09 04:42:05;;;;;;;15.02;7.32;;;22.20;72.80;;;;;;5072652;28;20045;-70
2023/07/09 04:44:31;;;;;;;8.75;7.10;;;22.20;72.80;;;;;;5072609;28;20116;-70
2023/07/09 04:46:56;;;;;;;12.18;7.22;;;22.20;72.50;;;;;;5072464;28;20076;-70
2023/07/09 04:49:22;;;;;;;10.70;7.32;;;22.30;72.80;;;;;;5072396;28;20049;-70
2023/07/09 04:51:48;;;;;;;10.15;7.35;;;22.30;72.80;;;;;;5072427;28;20115;-70
2023/07/09 04:54:14;;;;;;;12.48;6.80;;;22.40;73.20;;;;;;5072647;28;20139;-70
2023/07/09 04:56:44;;;;;;;13.20;7.35;;;22.40;73.40;;;;;;5072313;28;20445;-70
2023/07/09 04:59:10;;;;;;;10.93;6.88;;;22.40;73.30;;;;;;5072401;28;20044;-70
2023/07/09 05:01:36;;;;;;;11.27;7.22;;;22.50;73.30;;;;;;5072274;28;20120;-70
2023/07/09 05:04:02;;;;;;;12.10;7.07;;;22.60;73.20;;;;;;5055631;28;20131;-70
2023/07/09 05:06:28;;;;;;;9.40;7.05;;;22.60;73.90;;;;;;5072366;28;20059;-70
2023/07/09 05:08:53;;;;;;;11.65;6.80;;;22.60;73.50;;;;;;5055408;28;20041;-70
2023/07/09 05:11:19;;;;;;;9.88;7.47;;;22.70;73.70;;;;;;5072393;28;20048;-70
2023/07/09 05:13:45;;;;;;;10.88;7.50;;;22.70;73.50;;;;;;5072082;28;20505;-70
2023/07/09 05:16:10;;;;;;;9.40;7.13;;;22.80;73.50;;;;;;5072104;28;20036;-70
2023/07/09 05:18:37;;;;;;;12.02;6.82;;;22.80;73.40;;;;;;5072070;28;20032;-70
2023/07/09 05:21:02;;;;;;;12.50;7.15;;;22.90;73.60;;;;;;5072037;28;20117;-70
2023/07/09 05:23:28;;;;;;;12.50;8.05;;;22.90;73.70;;;;;;5072342;28;20103;-70
2023/07/09 05:25:58;;;;;;;11.85;7.70;;;23.00;73.90;;;;;;5071956;28;20072;-70
2023/07/09 05:28:24;;;;;;;12.82;7.28;;;23.00;73.80;;;;;;5071916;28;20039;-70
2023/07/09 05:30:49;;;;;;;12.48;7.95;;;23.00;74.00;;;;;;5071819;28;20044;-70
2023/07/09 05:33:16;;;;;;;9.93;7.03;;;23.10;74.10;;;;;;5071925;28;20045;-70
2023/07/09 05:35:42;;;;;;;9.35;7.50;;;23.10;74.10;;;;;;5072230;28;20044;-70
2023/07/09 05:38:08;;;;;;;11.38;8.20;;;23.20;74.20;;;;;;5072035;28;20586;-70
2023/07/09 05:40:33;;;;;;;9.50;7.60;;;23.20;74.40;;;;;;5071839;28;20497;-70
2023/07/09 05:42:59;;;;;;;11.07;7.50;;;23.20;74.80;;;;;;5071804;28;20075;-70
2023/07/09 05:45:24;;;;;;;12.13;7.20;;;23.20;74.70;;;;;;5071755;28;20044;-70
2023/07/09 05:47:50;;;;;;;9.95;8.15;;;23.20;75.00;;;;;;5071876;28;20044;-70
2023/07/09 05:50:16;;;;;;;13.07;7.80;;;23.20;75.20;;;;;;5054998;28;20436;-70
2023/07/09 05:52:41;;;;;;;10.63;8.15;;;23.20;75.60;;;;;;5054990;28;20032;-70
2023/07/09 05:55:07;;;;;;;10.23;8.02;;;23.20;75.70;;;;;;5071717;28;20040;-70
2023/07/09 05:57:32;;;;;;;11.10;8.05;;;23.20;76.10;;;;;;5072124;28;20036;-70
2023/07/09 05:59:58;;;;;;;10.80;8.27;;;23.20;76.30;;;;;;5071651;28;20416;-70
2023/07/09 06:02:24;;;;;;;11.40;9.20;;;23.20;76.50;;;;;;5071836;28;20047;-70
2023/07/09 06:04:49;;;;;;;15.15;8.70;;;23.20;76.90;;;;;;5071622;28;20389;-70
2023/07/09 06:07:15;;;;;;;12.40;8.68;;;23.20;77.20;;;;;;5071333;28;20083;-71
2023/07/09 06:09:41;;;;;;;12.15;8.93;;;23.30;77.70;;;;;;5073125;28;20166;-70
2023/07/09 06:12:08;;;;;;;12.45;8.88;;;23.30;77.70;;;;;;5075637;28;20127;-70
2023/07/09 06:14:34;;;;;;;11.73;9.00;;;23.40;77.80;;;;;;5058795;28;20577;-70
2023/07/09 06:17:00;;;;;;;11.77;9.18;;;23.40;77.90;;;;;;5075474;28;20417;-70
2023/07/09 06:19:26;;;;;;;12.82;9.20;;;23.50;78.10;;;;;;5075385;28;20416;-71
2023/07/09 06:21:51;;;;;;;14.20;10.13;;;23.60;78.20;;;;;;5075331;28;20037;-70
2023/07/09 06:24:17;;;;;;;14.63;9.75;;;23.60;78.00;;;;;;5075558;28;20059;-70
2023/07/09 06:26:43;;;;;;;11.82;9.90;;;23.60;78.30;;;;;;5075522;28;20566;-70
2023/07/09 06:29:08;;;;;;;12.55;9.75;;;23.70;78.60;;;;;;5075294;28;20155;-70
2023/07/09 06:31:35;;;;;;;13.20;9.77;;;23.80;79.10;;;;;;5075159;28;20115;-70
2023/07/09 06:34:01;;;;;;;18.98;10.07;;;23.80;79.20;;;;;;5075126;28;20044;-70
2023/07/09 06:36:27;;;;;;;15.98;10.05;;;23.90;79.20;;;;;;5075073;28;20086;-70
2023/07/09 06:38:52;;;;;;;16.10;9.18;;;23.90;79.40;;;;;;5075385;28;20082;-75
2023/07/09 06:41:18;;;;;;;13.50;9.88;;;24.00;79.20;;;;;;5058345;28;20037;-75
2023/07/09 06:43:44;;;;;;;14.40;9.30;;;24.10;79.50;;;;;;5075594;28;20040;-71
2023/07/09 06:46:13;;;;;;;14.25;10.13;;;24.30;79.50;;;;;;5074984;28;20044;-71
2023/07/09 06:48:38;;;;;;;17.38;10.25;;;24.30;79.60;;;;;;5058287;28;20097;-71
2023/07/09 06:51:04;;;;;;;15.27;10.10;;;24.40;79.50;;;;;;5075113;28;20493;-71
2023/07/09 06:53:30;;;;;;;12.82;8.77;;;24.40;79.70;;;;;;5074751;28;20493;-71
2023/07/09 06:55:58;;;;;;;17.00;10.55;;;24.50;79.70;;;;;;5074709;28;20036;-71
2023/07/09 06:58:27;;;;;;;13.13;9.25;;;24.50;79.50;;;;;;5074669;28;20044;-71
2023/07/09 07:00:54;;;;;;;13.63;10.48;;;24.70;79.30;;;;;;5074571;28;20040;-71
2023/07/09 07:03:20;;;;;;;16.00;10.15;;;24.70;79.30;;;;;;5074781;28;20040;-71
2023/07/09 07:05:53;;;;;;;11.98;9.02;;;24.90;79.20;;;;;;5074596;28;20036;-70
2023/07/09 07:08:20;;;;;;;14.27;9.70;;;25.00;79.50;;;;;;5074432;28;20044;-71
2023/07/09 07:10:48;;;;;;;25.13;10.52;;;25.10;78.60;;;;;;5074389;28;20501;-71
2023/07/09 07:13:14;;;;;;;13.50;9.45;;;25.20;79.30;;;;;;5074373;28;20048;-70
2023/07/09 07:15:40;;;;;;;15.45;9.55;;;25.40;78.90;;;;;;5057667;28;20086;-71
2023/07/09 07:18:07;;;;;;;13.25;9.13;;;25.40;79.10;;;;;;5074212;28;20496;-71
2023/07/09 07:20:33;;;;;;;13.40;9.73;;;25.50;79.00;;;;;;5073391;28;20505;-71
2023/07/09 07:22:58;;;;;;;14.02;9.32;;;25.60;78.50;;;;;;5073787;28;20056;-71
2023/07/09 07:25:25;;;;;;;14.25;9.50;;;25.70;78.70;;;;;;5074162;28;20037;-71
2023/07/09 07:27:51;;;;;;;15.85;9.00;;;25.70;78.70;;;;;;5074061;28;20044;-71
2023/07/09 07:30:17;;;;;;;14.00;9.75;;;25.80;79.40;;;;;;5074019;28;20054;-71
2023/07/09 07:32:48;;;;;;;13.45;9.10;;;25.90;78.90;;;;;;5074022;28;20447;-71
2023/07/09 07:35:14;;;;;;;12.80;9.03;;;26.00;79.70;;;;;;5074078;28;20045;-71
2023/07/09 07:37:41;;;;;;;15.18;8.18;;;26.00;78.60;;;;;;5073891;28;20068;-71
2023/07/09 07:40:08;;;;;;;11.98;8.88;;;26.10;78.60;;;;;;5073883;28;20081;-71
2023/07/09 07:42:33;;;;;;;13.63;9.27;;;26.30;78.20;;;;;;5073831;28;20049;-71
2023/07/09 07:44:59;;;;;;;12.85;8.75;;;26.30;77.70;;;;;;5074071;28;20075;-71
2023/07/09 07:47:26;;;;;;;13.07;7.60;;;26.40;77.70;;;;;;5073702;28;20134;-71
2023/07/09 07:49:52;;;;;;;13.65;8.52;;;26.50;77.50;;;;;;5073642;28;20032;-71
2023/07/09 07:52:18;;;;;;;11.75;8.10;;;26.70;77.60;;;;;;5073731;28;20044;-71
2023/07/09 07:54:44;;;;;;;10.85;8.18;;;26.80;77.50;;;;;;5073627;28;20044;-71
2023/07/09 07:57:11;;;;;;;13.52;8.80;;;26.90;77.10;;;;;;5056850;28;20483;-70
2023/07/09 07:59:37;;;;;;;16.50;7.78;;;27.10;77.10;;;;;;5073470;28;20434;-71
2023/07/09 08:02:04;;;;;;;10.30;7.47;;;27.20;76.60;;;;;;5073410;28;20087;-71
2023/07/09 08:04:29;;;;;;;11.75;7.50;;;27.30;75.30;;;;;;5073628;28;20540;-71
2023/07/09 08:06:55;;;;;;;12.40;8.43;;;27.40;74.80;;;;;;5073161;28;20044;-71
2023/07/09 08:09:21;;;;;;;11.57;8.52;;;27.50;75.30;;;;;;5073181;28;20040;-71
2023/07/09 08:11:47;;;;;;;12.13;7.60;;;27.50;74.80;;;;;;5073343;28;20033;-70
2023/07/09 08:14:12;;;;;;;12.68;7.05;;;27.60;75.10;;;;;;5073479;28;20040;-71
2023/07/09 08:16:39;;;;;;;14.10;8.27;;;27.70;73.70;;;;;;5073837;28;20489;-71
2023/07/09 08:19:05;;;;;;;9.93;7.22;;;27.90;73.70;;;;;;5073768;28;20044;-71
2023/07/09 08:21:30;;;;;;;10.18;6.82;;;27.90;73.10;;;;;;5073316;28;20405;-71
2023/07/09 08:23:56;;;;;;;12.20;6.90;;;28.00;72.00;;;;;;5073005;28;20520;-71
2023/07/09 08:26:23;;;;;;;11.52;7.45;;;28.00;72.00;;;;;;5073224;28;20087;-71
2023/07/09 08:28:50;;;;;;;15.98;7.43;;;28.10;72.10;;;;;;5072710;28;20051;-71
2023/07/09 08:31:16;;;;;;;10.45;7.28;;;28.10;71.70;;;;;;5073081;28;20077;-71
2023/07/09 08:33:41;;;;;;;12.07;6.93;;;28.20;71.40;;;;;;5055754;28;20409;-71
2023/07/09 08:36:07;;;;;;;14.77;7.18;;;28.30;71.10;;;;;;5072765;28;20041;-71
2023/07/09 08:38:33;;;;;;;21.55;7.35;;;28.40;70.30;;;;;;5072641;28;20040;-71
2023/07/09 08:41:06;;;;;;;11.82;7.68;;;28.50;70.90;;;;;;5056299;28;20055;-71
2023/07/09 08:43:46;;;;;;;10.65;7.22;;;28.60;70.30;;;;;;5072620;28;20044;-71
2023/07/09 08:46:33;;;;;;;11.55;6.93;;;28.70;70.80;;;;;;5072932;28;20135;-70
2023/07/09 08:49:02;;;;;;;12.80;7.57;;;28.80;70.40;;;;;;5072474;28;20489;-71
2023/07/09 08:51:40;;;;;;;10.02;7.53;;;28.90;69.50;;;;;;5072346;28;20052;-71
2023/07/09 08:54:19;;;;;;;11.25;6.50;;;28.90;68.50;;;;;;5056065;28;20072;-71
2023/07/09 08:56:45;;;;;;;10.25;6.15;;;29.00;69.60;;;;;;5072403;28;20041;-71
2023/07/09 08:59:16;;;;;;;9.98;6.38;;;29.10;69.80;;;;;;5072234;28;20044;-71
2023/07/09 09:01:59;;;;;;;13.40;7.20;;;29.20;69.60;;;;;;5072333;28;20117;-71
2023/07/09 09:04:28;;;;;;;9.57;5.88;;;29.30;70.30;;;;;;5072541;28;20051;-71
2023/07/09 09:07:19;;;;;;;13.38;6.78;;;29.40;69.80;;;;;;5072023;28;20040;-72
2023/07/09 09:09:56;;;;;;;10.00;6.50;;;29.60;68.30;;;;;;5072273;28;20182;-71
2023/07/09 09:12:28;;;;;;;10.20;5.72;;;29.60;67.90;;;;;;5072222;28;20115;-71
2023/07/09 09:15:04;;;;;;;9.30;5.25;;;29.70;67.40;;;;;;5072204;28;20412;-71
2023/07/09 09:17:33;;;;;;;7.93;5.18;;;29.80;67.70;;;;;;5073791;28;20048;-71
2023/07/09 09:20:06;;;;;;;7.80;5.75;;;30.00;66.60;;;;;;5072015;28;20131;-71
2023/07/09 09:23:06;;;;;;;10.65;5.45;;;30.10;66.60;;;;;;5072343;28;20044;-71
2023/07/09 09:25:34;;;;;;;13.55;6.28;;;30.20;66.40;;;;;;5072218;28;20127;-71
2023/07/09 09:28:01;;;;;;;11.15;6.35;;;30.30;66.20;;;;;;5072155;28;20048;-71
2023/07/09 09:30:28;;;;;;;9.75;6.18;;;30.40;66.30;;;;;;5071953;28;20044;-71
2023/07/09 09:33:08;;;;;;;8.95;6.20;;;30.60;65.80;;;;;;5071952;28;20135;-71
2023/07/09 09:35:39;;;;;;;9.68;5.80;;;30.70;65.50;;;;;;5072238;28;20101;-71
2023/07/09 09:38:15;;;;;;;12.68;5.95;;;30.70;66.20;;;;;;5072007;28;20477;-71
2023/07/09 09:40:41;;;;;;;9.60;5.28;;;30.70;63.70;;;;;;5071887;28;20056;-71
2023/07/09 09:43:32;;;;;;;8.95;5.35;;;30.80;64.40;;;;;;5071749;28;20044;-71
2023/07/09 09:46:01;;;;;;;9.55;4.90;;;31.00;62.80;;;;;;5071771;28;20036;-71
2023/07/09 09:48:30;;;;;;;9.20;5.20;;;31.10;62.00;;;;;;5055781;28;20452;-71
2023/07/09 09:51:00;;;;;;;10.35;5.63;;;31.20;62.50;;;;;;5071633;28;20037;-71
2023/07/09 09:53:28;;;;;;;10.05;5.32;;;31.30;62.60;;;;;;5071793;28;20047;-71
2023/07/09 09:55:56;;;;;;;9.02;5.60;;;31.40;62.70;;;;;;5071907;28;20105;-72
2023/07/09 09:58:27;;;;;;;9.80;5.47;;;31.40;62.30;;;;;;5071600;28;20158;-71
2023/07/09 10:00:55;;;;;;;9.80;6.10;;;31.40;63.30;;;;;;5071742;28;20036;-72
2023/07/09 10:03:21;;;;;;;12.48;6.57;;;31.60;63.30;;;;;;5071783;28;20044;-72
2023/07/09 10:05:56;;;;;;;8.70;5.40;;;31.70;63.00;;;;;;5071752;28;20044;-72
2023/07/09 10:08:49;;;;;;;9.93;6.03;;;31.70;62.30;;;;;;5071499;28;20040;-72
2023/07/09 10:11:24;;;;;;;10.15;5.70;;;31.90;61.10;;;;;;5071647;28;20503;-72
2023/07/09 10:13:54;;;;;;;11.68;5.78;;;32.00;62.60;;;;;;5071825;28;20048;-72
2023/07/09 10:16:38;;;;;;;9.15;5.97;;;32.10;62.20;;;;;;5071580;28;20041;-72
2023/07/09 10:19:24;;;;;;;9.95;5.68;;;32.20;60.40;;;;;;5071400;28;20047;-72
2023/07/09 10:22:12;;;;;;;10.32;5.38;;;32.30;61.70;;;;;;5071492;28;20049;-72
2023/07/09 10:25:02;;;;;;;11.68;5.80;;;32.40;61.80;;;;;;5071654;28;20110;-72
2023/07/09 10:27:59;;;;;;;11.65;5.80;;;32.50;61.70;;;;;;5071596;28;20497;-72
2023/07/09 10:31:08;;;;;;;11.43;5.72;;;32.70;59.40;;;;;;5071487;28;20485;-72
2023/07/09 10:33:39;;;;;;;12.02;5.72;;;32.90;59.90;;;;;;5054725;28;20552;-72
2023/07/09 10:36:35;;;;;;;8.07;5.00;;;32.90;57.90;;;;;;5072611;28;20123;-72
2023/07/09 10:39:10;;;;;;;9.65;5.53;;;32.90;56.30;;;;;;5071241;28;20033;-72
2023/07/09 10:41:38;;;;;;;8.27;4.80;;;32.90;55.90;;;;;;5071397;28;20161;-72
2023/07/09 10:44:11;;;;;;;12.77;5.55;;;33.00;56.20;;;;;;5071324;28;20044;-72
2023/07/09 10:46:40;;;;;;;8.40;5.07;;;33.10;55.90;;;;;;5071229;28;20051;-72
2023/07/09 10:49:11;;;;;;;8.80;5.68;;;33.30;57.10;;;;;;5071279;28;20044;-72
2023/07/09 10:52:04;;;;;;;10.57;4.68;;;33.30;56.10;;;;;;5071324;28;20044;-72
2023/07/09 10:55:02;;;;;;;13.02;5.15;;;33.40;57.40;;;;;;5071232;28;20555;-71
2023/07/09 10:57:51;;;;;;;8.50;5.13;;;33.60;58.40;;;;;;5074887;28;20094;-71
2023/07/09 11:00:20;;;;;;;8.73;5.55;;;33.70;57.80;;;;;;5074863;28;20051;-71
2023/07/09 11:02:51;;;;;;;9.90;5.85;;;33.80;56.70;;;;;;5074936;28;20571;-71
2023/07/09 11:05:18;;;;;;;9.00;5.68;;;33.90;56.30;;;;;;5074880;28;20048;-71
2023/07/09 11:08:06;;;;;;;13.27;5.80;;;34.00;57.30;;;;;;5074478;28;20457;-72
2023/07/09 11:10:40;;;;;;;12.50;5.80;;;34.10;56.40;;;;;;5074170;28;20539;-72
2023/07/09 11:13:15;;;;;;;9.13;5.30;;;34.10;55.10;;;;;;5074474;28;20115;-72
2023/07/09 11:15:47;;;;;;;8.57;5.07;;;34.20;55.60;;;;;;5074750;28;20063;-72
2023/07/09 11:18:21;;;;;;;10.63;5.15;;;34.30;55.80;;;;;;5075605;28;20080;-72
2023/07/09 11:21:05;;;;;;;10.70;5.43;;;34.30;55.00;;;;;;5074358;28;20069;-72
2023/07/09 11:24:01;;;;;;;10.35;5.22;;;34.50;55.70;;;;;;5075543;28;20481;-72
2023/07/09 11:26:30;;;;;;;11.45;4.93;;;34.50;54.90;;;;;;5073503;28;20048;-72
2023/07/09 11:29:14;;;;;;;10.00;4.60;;;34.60;54.80;;;;;;5074213;28;20086;-72
2023/07/09 11:31:46;;;;;;;8.25;4.50;;;34.70;54.20;;;;;;5058583;28;20098;-72
2023/07/09 11:34:14;;;;;;;;;;;34.80;55.20;;;;;;5074494;28;20558;-72
2023/07/09 11:37:11;;;;;;;10.27;4.45;;;34.90;55.40;;;;;;5073987;28;19928;-72
2023/07/09 11:39:36;;;;;;;7.13;4.60;;;35.00;55.00;;;;;;5066010;28;20064;-72
2023/07/09 11:42:03;;;;;;;8.35;4.45;;;35.10;53.40;;;;;;5073881;28;20044;-70
2023/07/09 11:44:32;;;;;;;7.15;4.45;;;35.10;53.00;;;;;;5073867;28;20405;-70
2023/07/09 11:47:07;;;;;;;11.55;5.15;;;35.20;54.90;;;;;;5073708;28;20105;-70
2023/07/09 11:49:58;;;;;;;8.88;4.78;;;35.40;53.90;;;;;;5073793;28;20052;-70
2023/07/09 11:52:31;;;;;;;10.73;4.47;;;35.50;52.90;;;;;;5073697;28;20123;-70
2023/07/09 11:54:57;;;;;;;8.85;4.80;;;35.50;52.60;;;;;;5073667;28;20044;-70
2023/07/09 11:57:22;;;;;;;8.27;4.82;;;35.50;53.20;;;;;;5073490;28;20040;-70
2023/07/09 11:59:48;;;;;;;8.77;4.68;;;35.60;53.40;;;;;;5073486;28;20052;-70
2023/07/09 12:02:18;;;;;;;10.52;4.50;;;35.70;55.00;;;;;;5073459;28;20040;-70
2023/07/09 12:04:44;;;;;;;10.52;4.35;;;35.90;54.00;;;;;;5073402;28;20050;-70
2023/07/09 12:07:13;;;;;;;6.82;3.95;;;36.10;52.20;;;;;;5072368;28;20047;-69
2023/07/09 12:09:45;;;;;;;8.43;3.90;;;36.20;52.10;;;;;;5073280;28;20078;-69
2023/07/09 12:12:25;;;;;;;8.85;4.70;;;36.20;50.30;;;;;;5073247;28;20033;-69
2023/07/09 12:14:51;;;;;;;8.93;4.68;;;36.20;50.90;;;;;;5073267;28;20036;-69
2023/07/09 12:17:18;;;;;;;6.68;4.43;;;36.20;51.70;;;;;;5073117;28;20115;-69
2023/07/09 12:19:43;;;;;;;8.75;4.53;;;36.20;50.90;;;;;;5073339;28;20489;-69
2023/07/09 12:22:18;;;;;;;12.25;4.55;;;36.20;50.60;;;;;;5073056;28;20045;-69
2023/07/09 12:24:46;;;;;;;7.95;4.28;;;36.30;51.40;;;;;;5073239;28;20036;-69
2023/07/09 12:27:21;;;;;;;10.23;3.88;;;36.30;50.50;;;;;;5072893;28;20051;-69
2023/07/09 12:29:47;;;;;;;6.53;3.70;;;36.30;50.90;;;;;;5073039;28;20041;-69
2023/07/09 12:32:16;;;;;;;7.78;4.22;;;36.30;51.90;;;;;;5072861;28;20455;-69
2023/07/09 12:34:42;;;;;;;8.27;4.00;;;36.40;51.40;;;;;;5072713;28;20500;-69
2023/07/09 12:37:14;;;;;;;6.82;4.00;;;36.40;50.90;;;;;;5073908;28;20551;-69
2023/07/09 12:39:40;;;;;;;7.43;3.95;;;36.60;50.10;;;;;;5074223;28;20051;-69
2023/07/09 12:42:20;;;;;;;10.13;4.18;;;36.60;49.90;;;;;;5072957;28;20048;-69
2023/07/09 12:44:48;;;;;;;6.70;3.88;;;36.50;50.80;;;;;;5072682;28;20055;-69
2023/07/09 12:47:15;;;;;;;6.70;4.40;;;36.50;50.10;;;;;;5072588;28;20123;-72
2023/07/09 12:49:43;;;;;;;7.75;4.00;;;36.50;50.10;;;;;;5072461;28;20045;-72
2023/07/09 12:52:20;;;;;;;7.78;3.90;;;36.50;49.90;;;;;;5072544;28;20044;-71